createdAt,value
2022-10-17T00:00:44.960Z,32.53
2022-10-17T00:03:13.684Z,37.67
2022-10-17T00:05:46.390Z,36.30
2022-10-17T00:08:15.745Z,33.75
2022-10-17T00:10:42.985Z,34.53
2022-10-17T00:13:10.835Z,36.28
2022-10-17T00:15:38.552Z,37.45
2022-10-17T00:18:05.515Z,34.33
2022-10-17T00:20:35.744Z,33.00
2022-10-17T00:23:02.768Z,34.08
2022-10-17T00:25:29.895Z,34.38
2022-10-17T00:27:56.884Z,34.17
2022-10-17T00:30:23.859Z,34.13
2022-10-17T00:32:50.928Z,36.42
2022-10-17T00:35:17.959Z,38.50
2022-10-17T00:37:44.914Z,32.78
2022-10-17T00:40:12.561Z,35.63
2022-10-17T00:42:39.710Z,34.35
2022-10-17T00:45:35.281Z,40.20
2022-10-17T00:48:08.571Z,35.13
2022-10-17T00:50:38.964Z,35.10
2022-10-17T00:53:08.547Z,31.60
2022-10-17T00:55:42.448Z,34.33
2022-10-17T00:58:09.644Z,36.80
2022-10-17T01:00:37.248Z,35.00
2022-10-17T01:03:04.963Z,27.75
2022-10-17T01:05:32.499Z,35.40
2022-10-17T01:07:59.646Z,42.90
2022-10-17T01:10:50.456Z,38.42
2022-10-17T01:13:30.250Z,38.40
2022-10-17T01:16:03.630Z,39.10
2022-10-17T01:18:39.659Z,50.58
2022-10-17T01:21:06.627Z,39.33
2022-10-17T01:24:03.611Z,34.95
2022-10-17T01:26:58.324Z,36.88
2022-10-17T01:29:53.104Z,38.40
2022-10-17T01:32:37.803Z,38.25
2022-10-17T01:35:13.416Z,34.60
2022-10-17T01:37:59.356Z,34.78
2022-10-17T01:40:32.939Z,37.13
2022-10-17T01:43:08.214Z,40.95
2022-10-17T01:45:57.379Z,36.97
2022-10-17T01:48:30.070Z,37.97
2022-10-17T01:51:19.199Z,37.63
2022-10-17T01:54:05.500Z,40.97
2022-10-17T01:56:34.301Z,40.78
2022-10-17T01:59:06.498Z,37.22
2022-10-17T02:01:36.719Z,42.35
2022-10-17T02:04:05.716Z,41.58
2022-10-17T02:06:36.380Z,39.58
2022-10-17T02:09:18.015Z,38.38
2022-10-17T02:11:57.760Z,40.97
2022-10-17T02:14:42.004Z,41.28
2022-10-17T02:17:15.094Z,39.78
2022-10-17T02:20:14.836Z,45.13
2022-10-17T02:22:56.973Z,37.35
2022-10-17T02:25:29.882Z,39.15
2022-10-17T02:28:07.403Z,39.88
2022-10-17T02:30:53.810Z,43.40
2022-10-17T02:33:26.539Z,38.13
2022-10-17T02:35:57.956Z,40.13
2022-10-17T02:38:27.950Z,40.40
2022-10-17T02:40:56.081Z,41.90
2022-10-17T02:43:24.200Z,39.72
2022-10-17T02:45:52.732Z,33.10
2022-10-17T02:48:31.050Z,32.67
2022-10-17T02:51:16.588Z,38.15
2022-10-17T02:54:13.164Z,35.42
2022-10-17T02:57:10.278Z,36.72
2022-10-17T02:59:38.650Z,32.20
2022-10-17T03:02:07.039Z,32.55
2022-10-17T03:04:34.902Z,33.60
2022-10-17T03:07:01.879Z,35.50
2022-10-17T03:09:28.875Z,33.97
2022-10-17T03:11:55.850Z,33.45
2022-10-17T03:14:22.804Z,40.95
2022-10-17T03:16:49.855Z,33.00
2022-10-17T03:19:16.838Z,32.60
2022-10-17T03:21:43.802Z,31.00
2022-10-17T03:24:10.828Z,34.53
2022-10-17T03:26:37.880Z,33.85
2022-10-17T03:29:04.952Z,29.15
2022-10-17T03:31:32.068Z,32.92
2022-10-17T03:33:59.034Z,34.03
2022-10-17T03:36:26.009Z,34.22
2022-10-17T03:38:56.143Z,30.17
2022-10-17T03:41:23.162Z,34.15
2022-10-17T03:43:50.167Z,29.90
2022-10-17T03:48:45.016Z,36.28
2022-10-17T03:51:12.209Z,36.33
2022-10-17T03:53:39.301Z,31.45
2022-10-17T03:56:14.742Z,30.25
2022-10-17T03:58:42.427Z,29.95
2022-10-17T04:01:11.866Z,34.92
2022-10-17T04:03:39.243Z,34.50
2022-10-17T04:06:07.217Z,29.88
2022-10-17T04:08:34.669Z,32.60
2022-10-17T04:11:03.056Z,30.33
2022-10-17T04:13:31.107Z,31.13
2022-10-17T04:16:03.180Z,30.65
2022-10-17T04:18:30.409Z,34.72
2022-10-17T04:20:57.807Z,35.25
2022-10-17T04:23:26.616Z,30.10
2022-10-17T04:25:57.402Z,28.40
2022-10-17T04:28:25.393Z,35.70
2022-10-17T04:31:00.535Z,30.52
2022-10-17T04:33:27.775Z,30.55
2022-10-17T04:36:06.922Z,29.90
2022-10-17T04:38:34.380Z,32.97
2022-10-17T04:41:03.391Z,27.75
2022-10-17T04:43:31.575Z,31.30
2022-10-17T04:45:59.705Z,30.90
2022-10-17T04:48:26.800Z,31.50
2022-10-17T04:51:05.309Z,37.00
2022-10-17T04:53:34.053Z,32.33
2022-10-17T04:56:01.345Z,35.22
2022-10-17T04:58:31.051Z,30.77
2022-10-17T05:00:58.037Z,33.83
2022-10-17T05:03:25.123Z,35.15
2022-10-17T05:05:52.128Z,28.73
2022-10-17T05:08:19.080Z,27.95
2022-10-17T05:10:48.992Z,32.47
2022-10-17T05:13:16.052Z,29.65
2022-10-17T05:15:43.000Z,26.45
2022-10-17T05:18:09.978Z,29.00
2022-10-17T05:20:36.956Z,30.98
2022-10-17T05:23:04.003Z,30.52
2022-10-17T05:25:30.958Z,28.48
2022-10-17T05:27:57.907Z,26.35
2022-10-17T05:30:24.868Z,24.15
2022-10-17T05:32:56.129Z,27.63
2022-10-17T05:35:23.150Z,26.35
2022-10-17T05:37:50.142Z,26.30
2022-10-17T05:40:17.313Z,23.50
2022-10-17T05:42:48.935Z,23.02
2022-10-17T05:45:16.916Z,25.08
2022-10-17T05:47:43.944Z,25.73
2022-10-17T05:50:11.025Z,23.15
2022-10-17T05:52:38.287Z,21.98
2022-10-17T05:55:06.490Z,20.42
2022-10-17T05:57:34.019Z,27.45
2022-10-17T06:00:01.065Z,29.17
2022-10-17T06:02:28.366Z,21.35
2022-10-17T06:04:56.051Z,21.05
2022-10-17T06:07:23.530Z,25.73
2022-10-17T06:09:50.659Z,24.50
2022-10-17T06:12:18.099Z,26.13
2022-10-17T06:14:45.451Z,22.98
2022-10-17T06:17:16.065Z,23.50
2022-10-17T06:19:45.229Z,25.65
2022-10-17T06:22:12.791Z,24.50
2022-10-17T06:24:39.799Z,25.73
2022-10-17T06:27:10.943Z,20.95
2022-10-17T06:29:39.223Z,27.40
2022-10-17T06:32:08.731Z,21.63
2022-10-17T06:34:38.378Z,22.30
2022-10-17T06:37:05.478Z,18.35
2022-10-17T06:39:34.291Z,21.65
2022-10-17T06:42:02.605Z,28.83
2022-10-17T06:44:31.995Z,22.85
2022-10-17T06:46:59.847Z,19.40
2022-10-17T06:49:28.207Z,23.10
2022-10-17T06:51:55.289Z,24.25
2022-10-17T06:54:22.308Z,18.15
2022-10-17T06:56:49.288Z,18.63
2022-10-17T06:59:16.603Z,20.30
2022-10-17T07:01:46.258Z,22.20
2022-10-17T07:04:14.439Z,21.15
2022-10-17T07:06:41.775Z,22.27
2022-10-17T07:09:09.311Z,22.45
2022-10-17T07:11:36.804Z,20.38
2022-10-17T07:14:03.873Z,21.98
2022-10-17T07:16:30.892Z,22.05
2022-10-17T07:18:57.909Z,21.70
2022-10-17T07:21:25.504Z,22.17
2022-10-17T07:23:52.662Z,23.25
2022-10-17T07:26:20.525Z,25.52
2022-10-17T07:28:51.587Z,22.70
2022-10-17T07:31:20.356Z,23.98
2022-10-17T07:36:19.346Z,22.92
2022-10-17T07:38:46.369Z,21.55
2022-10-17T07:41:17.788Z,22.65
2022-10-17T07:43:47.961Z,20.73
2022-10-17T07:46:15.276Z,21.65
2022-10-17T07:48:42.284Z,21.10
2022-10-17T07:51:10.978Z,22.13
2022-10-17T07:53:46.431Z,27.73
2022-10-17T07:56:15.960Z,21.42
2022-10-17T07:58:43.070Z,22.92
2022-10-17T08:01:15.816Z,21.25
2022-10-17T08:03:47.284Z,24.92
2022-10-17T08:06:14.491Z,22.92
2022-10-17T08:08:41.880Z,25.38
2022-10-17T08:11:11.914Z,23.80
2022-10-17T08:13:40.405Z,23.35
2022-10-17T08:16:11.308Z,23.00
2022-10-17T08:18:40.655Z,21.93
2022-10-17T08:21:08.809Z,19.43
2022-10-17T08:23:36.588Z,21.60
2022-10-17T08:26:06.510Z,22.70
2022-10-17T08:28:35.965Z,21.00
2022-10-17T08:31:08.232Z,22.10
2022-10-17T08:33:35.338Z,28.80
2022-10-17T08:36:03.561Z,21.93
2022-10-17T08:38:35.445Z,24.33
2022-10-17T08:41:32.841Z,21.87
2022-10-17T08:44:29.921Z,23.60
2022-10-17T08:47:01.586Z,24.60
2022-10-17T08:49:52.783Z,25.10
2022-10-17T08:53:14.243Z,23.53
2022-10-17T08:55:45.898Z,26.90
2022-10-17T08:58:14.605Z,24.90
2022-10-17T09:00:48.199Z,25.77
2022-10-17T09:03:51.704Z,30.20
2022-10-17T09:06:30.103Z,22.50
2022-10-17T09:09:11.751Z,25.60
2022-10-17T09:11:47.955Z,26.67
2022-10-17T09:14:29.371Z,29.63
2022-10-17T09:17:21.168Z,25.00
2022-10-17T09:20:11.084Z,27.97
2022-10-17T09:22:58.069Z,30.90
2022-10-17T09:25:26.157Z,28.87
2022-10-17T09:27:59.467Z,27.00
2022-10-17T09:30:46.389Z,23.90
2022-10-17T09:33:28.356Z,28.57
2022-10-17T09:36:09.615Z,26.50
2022-10-17T09:38:43.168Z,29.13
2022-10-17T09:41:44.191Z,26.20
2022-10-17T09:44:20.336Z,31.60
2022-10-17T09:47:09.684Z,34.03
2022-10-17T09:49:40.137Z,29.30
2022-10-17T09:52:14.435Z,27.63
2022-10-17T09:55:15.862Z,25.60
2022-10-17T09:57:58.196Z,30.20
2022-10-17T10:00:28.925Z,25.00
2022-10-17T10:03:14.267Z,29.50
2022-10-17T10:05:42.963Z,27.87
2022-10-17T10:08:20.833Z,30.93
2022-10-17T10:11:05.657Z,25.53
2022-10-17T10:13:34.931Z,29.50
2022-10-17T10:16:16.080Z,26.57
2022-10-17T10:18:46.451Z,25.00
2022-10-17T10:21:21.896Z,24.23
2022-10-17T10:24:10.630Z,25.70
2022-10-17T10:26:40.565Z,27.20
2022-10-17T10:29:32.625Z,25.90
2022-10-17T10:32:10.304Z,27.50
2022-10-17T10:34:46.765Z,33.63
2022-10-17T10:37:27.401Z,23.80
2022-10-17T10:40:01.225Z,27.70
2022-10-17T10:42:35.902Z,29.90
2022-10-17T10:45:29.399Z,27.70
2022-10-17T10:48:24.643Z,26.70
2022-10-17T10:51:24.404Z,24.03
2022-10-17T10:54:11.841Z,26.37
2022-10-17T10:56:49.911Z,22.47
2022-10-17T10:59:37.957Z,25.80
2022-10-17T11:02:14.468Z,25.60
2022-10-17T11:04:47.457Z,20.30
2022-10-17T11:07:22.648Z,24.23
2022-10-17T11:10:23.141Z,22.20
2022-10-17T11:13:11.580Z,21.37
2022-10-17T11:15:53.953Z,23.30
2022-10-17T11:18:32.043Z,19.97
2022-10-17T11:21:11.126Z,19.80
2022-10-17T11:23:48.034Z,19.90
2022-10-17T11:26:33.130Z,22.00
2022-10-17T11:29:04.415Z,22.23
2022-10-17T11:31:35.398Z,23.60
2022-10-17T11:34:26.145Z,18.37
2022-10-17T11:37:12.285Z,18.70
2022-10-17T11:40:04.117Z,17.67
2022-10-17T11:42:38.535Z,17.50
2022-10-17T11:45:12.401Z,17.83
2022-10-17T11:47:50.734Z,21.70
2022-10-17T11:53:26.214Z,21.50
2022-10-17T11:55:54.640Z,22.97
2022-10-17T11:59:01.952Z,18.80
2022-10-17T12:01:45.537Z,18.00
2022-10-17T12:05:02.046Z,17.67
2022-10-17T12:07:57.758Z,23.60
2022-10-17T12:10:27.703Z,17.67
2022-10-17T12:12:54.761Z,17.63
2022-10-17T12:15:26.566Z,17.63
2022-10-17T12:18:02.769Z,24.33
2022-10-17T12:20:35.581Z,18.87
2022-10-17T12:23:11.056Z,16.10
2022-10-17T12:25:49.494Z,17.67
2022-10-17T12:28:30.415Z,17.70
2022-10-17T12:31:06.132Z,27.90
2022-10-17T12:33:38.267Z,16.23
2022-10-17T12:36:31.326Z,19.70
2022-10-17T12:39:04.147Z,16.50
2022-10-17T12:41:40.042Z,17.03
2022-10-17T12:44:29.402Z,17.13
2022-10-17T12:47:05.990Z,16.80
2022-10-17T12:49:44.260Z,19.43
2022-10-17T12:52:22.327Z,16.60
2022-10-17T12:55:12.152Z,17.47
2022-10-17T12:57:59.095Z,16.30
2022-10-17T13:00:34.906Z,19.97
2022-10-17T13:03:17.579Z,17.23
2022-10-17T13:05:52.680Z,17.37
2022-10-17T13:08:29.832Z,15.77
2022-10-17T13:10:58.309Z,19.70
2022-10-17T13:13:36.850Z,24.93
2022-10-17T13:16:05.460Z,16.50
2022-10-17T13:18:32.677Z,17.90
2022-10-17T13:21:03.479Z,13.33
2022-10-17T13:23:36.103Z,13.57
2022-10-17T13:26:27.720Z,22.10
2022-10-17T13:29:15.905Z,14.93
2022-10-17T13:31:45.037Z,23.13
2022-10-17T13:34:20.864Z,14.30
2022-10-17T13:36:51.566Z,15.63
2022-10-17T13:39:38.553Z,15.63
2022-10-17T13:42:27.709Z,15.70
2022-10-17T13:44:56.976Z,12.53
2022-10-17T13:47:31.066Z,14.40
2022-10-17T13:49:59.105Z,13.40
2022-10-17T13:52:30.122Z,13.23
2022-10-17T13:55:11.778Z,14.53
2022-10-17T13:57:40.508Z,16.57
2022-10-17T14:00:18.366Z,12.07
2022-10-17T14:02:45.492Z,14.67
2022-10-17T14:05:18.193Z,14.20
2022-10-17T14:08:14.235Z,14.87
2022-10-17T14:10:44.808Z,12.77
2022-10-17T14:13:34.137Z,12.63
2022-10-17T14:16:04.207Z,12.40
2022-10-17T14:18:36.463Z,17.10
2022-10-17T14:21:40.535Z,14.43
2022-10-17T14:24:22.391Z,12.17
2022-10-17T14:26:55.102Z,12.60
2022-10-17T14:29:31.075Z,11.30
2022-10-17T14:32:08.863Z,12.73
2022-10-17T14:34:40.789Z,13.80
2022-10-17T14:37:20.112Z,14.37
2022-10-17T14:39:51.228Z,13.60
2022-10-17T14:42:20.962Z,11.80
2022-10-17T14:44:53.335Z,14.13
2022-10-17T14:47:42.853Z,14.27
2022-10-17T14:50:10.759Z,21.17
2022-10-17T14:52:39.079Z,13.57
2022-10-17T14:55:25.820Z,14.30
2022-10-17T14:57:52.819Z,13.43
2022-10-17T15:00:21.957Z,15.30
2022-10-17T15:02:50.614Z,12.40
2022-10-17T15:05:18.299Z,13.17
2022-10-17T15:07:45.555Z,13.00
2022-10-17T15:10:42.009Z,15.43
2022-10-17T15:13:27.184Z,19.30
2022-10-17T15:15:55.404Z,14.10
2022-10-17T15:18:22.395Z,12.63
2022-10-17T15:20:55.350Z,12.77
2022-10-17T15:23:32.090Z,12.57
2022-10-17T15:25:59.093Z,12.53
2022-10-17T15:28:27.492Z,16.00
2022-10-17T15:30:54.581Z,10.80
2022-10-17T15:33:21.582Z,11.70
2022-10-17T15:35:48.658Z,13.40
2022-10-17T15:38:18.662Z,16.70
2022-10-17T15:40:49.180Z,12.80
2022-10-17T15:43:19.752Z,12.03
2022-10-17T15:45:47.848Z,13.50
2022-10-17T15:48:22.123Z,10.50
2022-10-17T15:50:49.186Z,10.43
2022-10-17T15:53:16.310Z,14.23
2022-10-17T15:55:43.281Z,11.40
2022-10-17T15:58:16.919Z,12.37
2022-10-17T16:00:44.681Z,12.17
2022-10-17T16:03:11.736Z,11.10
2022-10-17T16:05:38.815Z,8.97
2022-10-17T16:08:06.031Z,10.03
2022-10-17T16:10:34.069Z,12.73
2022-10-17T16:13:01.065Z,11.87
2022-10-17T16:15:28.707Z,11.97
2022-10-17T16:18:00.522Z,11.60
2022-10-17T16:20:30.026Z,14.37
2022-10-17T16:23:00.570Z,17.30
2022-10-17T16:25:29.996Z,10.50
2022-10-17T16:27:59.052Z,10.50
2022-10-17T16:30:28.713Z,10.23
2022-10-17T16:32:57.214Z,8.93
2022-10-17T16:35:26.687Z,10.30
2022-10-17T16:37:53.994Z,12.30
2022-10-17T16:40:20.999Z,12.63
2022-10-17T16:42:48.010Z,15.53
2022-10-17T16:45:21.113Z,10.60
2022-10-17T16:47:48.490Z,11.90
2022-10-17T16:50:16.067Z,11.13
2022-10-17T16:52:43.228Z,10.97
2022-10-17T16:55:10.892Z,11.73
2022-10-17T16:57:38.231Z,9.23
2022-10-17T17:00:06.746Z,11.50
2022-10-17T17:02:34.385Z,9.00
2022-10-17T17:05:01.781Z,10.87
2022-10-17T17:07:30.607Z,11.40
2022-10-17T17:09:58.351Z,9.37
2022-10-17T17:12:25.758Z,13.23
2022-10-17T17:14:52.990Z,9.57
2022-10-17T17:17:36.889Z,8.23
2022-10-17T17:20:07.949Z,12.27
2022-10-17T17:22:35.674Z,12.03
2022-10-17T17:25:03.366Z,9.87
2022-10-17T17:27:31.290Z,8.20
2022-10-17T17:29:59.215Z,9.00
2022-10-17T17:32:26.907Z,9.83
2022-10-17T17:34:56.396Z,8.03
2022-10-17T17:37:24.072Z,8.50
2022-10-17T17:39:51.552Z,9.17
2022-10-17T17:42:21.014Z,7.97
2022-10-17T17:44:50.298Z,9.57
2022-10-17T17:47:17.506Z,7.33
2022-10-17T17:49:45.354Z,8.67
2022-10-17T17:52:12.954Z,8.23
2022-10-17T17:54:41.111Z,8.37
2022-10-17T17:57:08.272Z,8.00
2022-10-17T17:59:35.980Z,9.03
2022-10-17T18:02:05.437Z,13.27
2022-10-17T18:04:32.835Z,8.80
2022-10-17T18:07:00.048Z,10.53
2022-10-17T18:09:27.299Z,8.40
2022-10-17T18:11:55.422Z,10.90
2022-10-17T18:14:26.319Z,11.47
2022-10-17T18:16:54.255Z,10.10
2022-10-17T18:19:24.612Z,8.80
2022-10-17T18:21:52.612Z,7.20
2022-10-17T18:24:20.453Z,7.93
2022-10-17T18:26:48.751Z,10.30
2022-10-17T18:29:16.686Z,9.30
2022-10-17T18:31:44.243Z,8.33
2022-10-17T18:34:11.698Z,9.70
2022-10-17T18:36:39.405Z,9.43
2022-10-17T18:39:07.849Z,8.37
2022-10-17T18:41:35.855Z,11.90
2022-10-17T18:44:03.980Z,8.57
2022-10-17T18:46:42.102Z,13.97
2022-10-17T18:49:15.548Z,11.13
2022-10-17T18:51:44.375Z,14.63
2022-10-17T18:54:21.126Z,8.90
2022-10-17T18:56:51.382Z,8.30
2022-10-17T18:59:20.924Z,10.20
2022-10-17T19:01:49.151Z,12.90
2022-10-17T19:04:17.049Z,9.30
2022-10-17T19:06:47.603Z,13.03
2022-10-17T19:09:15.988Z,15.43
2022-10-17T19:11:44.383Z,10.50
2022-10-17T19:14:15.615Z,9.60
2022-10-17T19:16:46.441Z,10.70
2022-10-17T19:19:20.081Z,10.20
2022-10-17T19:21:48.154Z,10.60
2022-10-17T19:24:26.973Z,9.57
2022-10-17T19:26:56.821Z,9.77
2022-10-17T19:29:28.656Z,15.90
2022-10-17T19:34:30.486Z,12.60
2022-10-17T19:36:57.696Z,11.70
2022-10-17T19:39:26.658Z,13.40
2022-10-17T19:41:54.515Z,13.80
2022-10-17T19:44:21.536Z,11.07
2022-10-17T19:46:49.665Z,10.80
2022-10-17T19:49:17.175Z,13.20
2022-10-17T19:51:45.046Z,10.70
2022-10-17T19:54:12.780Z,12.20
2022-10-17T19:56:40.743Z,14.00
2022-10-17T19:59:08.953Z,10.63
2022-10-17T20:01:41.125Z,12.23
2022-10-17T20:04:11.553Z,12.03
2022-10-17T20:06:40.384Z,12.20
2022-10-17T20:09:11.156Z,12.23
2022-10-17T20:11:41.305Z,13.23
2022-10-17T20:14:08.641Z,11.40
2022-10-17T20:16:36.797Z,18.47
2022-10-17T20:19:11.029Z,14.53
2022-10-17T20:21:40.079Z,11.80
2022-10-17T20:24:09.098Z,12.87
2022-10-17T20:26:38.758Z,10.60
2022-10-17T20:29:13.731Z,12.93
2022-10-17T20:31:42.347Z,12.00
2022-10-17T20:34:13.850Z,11.37
2022-10-17T20:36:41.818Z,14.00
2022-10-17T20:39:10.390Z,12.70
2022-10-17T20:41:37.368Z,12.20
2022-10-17T20:44:04.771Z,15.23
2022-10-17T20:46:44.884Z,15.30
2022-10-17T20:49:21.026Z,15.77
2022-10-17T20:51:47.994Z,13.20
2022-10-17T20:54:14.969Z,13.73
2022-10-17T20:56:42.158Z,10.30
2022-10-17T20:59:12.810Z,12.50
2022-10-17T21:01:39.915Z,13.13
2022-10-17T21:04:33.355Z,13.10
2022-10-17T21:06:54.142Z,12.60
2022-10-17T21:09:21.279Z,15.57
2022-10-17T21:11:51.507Z,16.53
2022-10-17T21:14:19.185Z,15.20
2022-10-17T21:16:46.283Z,11.57
2022-10-17T21:19:14.268Z,10.70
2022-10-17T21:21:43.690Z,14.63
2022-10-17T21:24:17.941Z,17.73
2022-10-17T21:26:46.608Z,14.77
2022-10-17T21:29:14.518Z,10.70
2022-10-17T21:31:43.728Z,10.53
2022-10-17T21:34:15.798Z,10.60
2022-10-17T21:36:42.867Z,10.57
2022-10-17T21:39:11.678Z,10.30
2022-10-17T21:41:39.084Z,9.80
2022-10-17T21:44:11.778Z,10.77
2022-10-17T21:46:38.794Z,13.27
2022-10-17T21:49:05.815Z,10.83
2022-10-17T21:51:32.947Z,10.33
2022-10-17T21:53:59.945Z,10.57
2022-10-17T21:56:28.996Z,9.50
2022-10-17T21:58:57.056Z,10.23
2022-10-17T22:01:30.064Z,11.30
2022-10-17T22:03:59.674Z,13.27
2022-10-17T22:06:44.763Z,18.13
2022-10-17T22:09:23.445Z,18.90
2022-10-17T22:11:54.591Z,11.53
2022-10-17T22:14:24.019Z,11.90
2022-10-17T22:16:51.433Z,10.27
2022-10-17T22:19:22.083Z,10.70
2022-10-17T22:21:49.780Z,11.43
2022-10-17T22:24:18.634Z,11.37
2022-10-17T22:26:46.117Z,9.93
2022-10-17T22:29:13.390Z,11.07
2022-10-17T22:31:40.985Z,10.23
2022-10-17T22:34:08.822Z,12.50
2022-10-17T22:36:36.121Z,11.20
2022-10-17T22:39:04.367Z,12.98
2022-10-17T22:41:31.857Z,12.00
2022-10-17T22:43:59.026Z,15.30
2022-10-17T22:46:26.181Z,14.13
2022-10-17T22:48:53.171Z,11.20
2022-10-17T22:51:20.273Z,13.32
2022-10-17T22:53:47.242Z,11.20
2022-10-17T22:56:17.652Z,14.57
2022-10-17T22:58:45.281Z,11.82
2022-10-17T23:03:47.389Z,13.15
2022-10-17T23:06:14.389Z,11.07
2022-10-17T23:08:41.828Z,12.13
2022-10-17T23:11:09.545Z,16.02
2022-10-17T23:13:37.397Z,13.45
2022-10-17T23:16:04.788Z,11.95
2022-10-17T23:21:03.942Z,11.68
2022-10-17T23:23:31.000Z,12.48
2022-10-17T23:26:05.039Z,13.85
2022-10-17T23:28:33.840Z,12.18
2022-10-17T23:31:12.300Z,12.30
2022-10-17T23:33:41.521Z,14.57
2022-10-17T23:36:10.774Z,13.20
2022-10-17T23:38:38.710Z,16.42
2022-10-17T23:41:05.889Z,11.63
2022-10-17T23:43:34.342Z,14.77
2022-10-17T23:46:02.408Z,11.55
2022-10-17T23:48:29.524Z,13.20
2022-10-17T23:50:57.071Z,17.35
2022-10-17T23:53:25.449Z,10.20
2022-10-17T23:55:52.939Z,11.20
2022-10-17T23:58:19.924Z,11.90
